Time;durP1;ratioP1;P1;durP2;ratioP2;P2;SDS_P1;SDS_P2;PMS_P1;PMS_P2;Temp;Humidity;BMP_temperature;BMP_pressure;BME280_temperature;BME280_humidity;BME280_pressure;Samples;Min_cycle;Max_cycle;Signal;HPM_P1;HPM_P2
2022/10/23 00:01:44;;;;;;;13.65;4.30;;;;;;;;;;4898914;29;20417;-62
2022/10/23 00:04:15;;;;;;;10.18;4.45;;;;;;;;;;4912089;29;20433;-64
2022/10/23 00:06:42;;;;;;;10.77;4.55;;;;;;;;;;4880800;29;20056;-63
2022/10/23 00:09:11;;;;;;;13.02;5.00;;;;;;;;;;4899919;29;20048;-63
2022/10/23 00:11:37;;;;;;;13.30;4.75;;;;;;;;;;4900780;29;20506;-63
2022/10/23 00:14:05;;;;;;;8.45;4.10;;;;;;;;;;4899788;29;20048;-65
2022/10/23 00:16:32;;;;;;;10.32;4.72;;;;;;;;;;4915278;29;20052;-64
2022/10/23 00:18:58;;;;;;;8.38;4.97;;;;;;;;;;4899746;29;20045;-64
2022/10/23 00:21:25;;;;;;;6.00;3.80;;;;;;;;;;4901326;29;20069;-64
2022/10/23 00:23:52;;;;;;;13.23;4.18;;;;;;;;;;4900321;29;20114;-63
2022/10/23 00:26:18;;;;;;;11.82;4.07;;;;;;;;;;4902083;29;20096;-64
2022/10/23 00:28:52;;;;;;;10.82;3.83;;;;;;;;;;4902239;29;20112;-63
2022/10/23 00:31:19;;;;;;;9.80;3.55;;;;;;;;;;4902607;29;20052;-62
2022/10/23 00:33:45;;;;;;;8.32;3.92;;;;;;;;;;4902427;29;20041;-63
2022/10/23 00:36:13;;;;;;;9.95;5.32;;;;;;;;;;4902433;29;20277;-63
2022/10/23 00:38:42;;;;;;;9.15;3.88;;;;;;;;;;4901712;29;20037;-63
2022/10/23 00:41:09;;;;;;;13.77;4.03;;;;;;;;;;4902838;29;20040;-63
2022/10/23 00:43:53;;;;;;;14.63;4.20;;;;;;;;;;4902208;29;20059;-64
2022/10/23 00:46:19;;;;;;;11.18;4.43;;;;;;;;;;4901955;29;20055;-62
2022/10/23 00:48:46;;;;;;;12.10;4.28;;;;;;;;;;4901695;29;20048;-64
2022/10/23 00:51:12;;;;;;;8.43;4.47;;;;;;;;;;4900493;29;20060;-64
2022/10/23 00:53:38;;;;;;;9.27;3.92;;;;;;;;;;4899699;29;20044;-63
2022/10/23 00:56:05;;;;;;;7.68;4.03;;;;;;;;;;4900427;29;20052;-63
2022/10/23 00:58:31;;;;;;;10.05;4.93;;;;;;;;;;4899538;29;20044;-63
2022/10/23 01:00:58;;;;;;;7.43;3.63;;;;;;;;;;4899586;29;20108;-63
2022/10/23 01:03:26;;;;;;;12.65;4.53;;;;;;;;;;4897706;29;20037;-64
2022/10/23 01:05:59;;;;;;;6.32;3.88;;;;;;;;;;4882578;29;20049;-64
2022/10/23 01:08:28;;;;;;;7.55;4.00;;;;;;;;;;4899504;29;20044;-64
2022/10/23 01:11:06;;;;;;;8.75;4.75;;;;;;;;;;4898163;29;20420;-64
2022/10/23 01:13:41;;;;;;;13.05;4.82;;;;;;;;;;4897348;29;20049;-65
2022/10/23 01:16:14;;;;;;;11.05;4.50;;;;;;;;;;4897898;29;20049;-63
2022/10/23 01:18:44;;;;;;;10.27;4.50;;;;;;;;;;4913502;29;20577;-64
2022/10/23 01:21:29;;;;;;;9.48;3.70;;;;;;;;;;4882456;29;20091;-64
2022/10/23 01:24:08;;;;;;;9.40;3.67;;;;;;;;;;4912882;29;20056;-64
2022/10/23 01:26:53;;;;;;;8.80;4.32;;;;;;;;;;4913419;29;20048;-64
2022/10/23 01:29:23;;;;;;;9.88;3.92;;;;;;;;;;4898931;29;20465;-65
2022/10/23 01:31:56;;;;;;;11.77;3.97;;;;;;;;;;4897662;29;20049;-63
2022/10/23 01:34:29;;;;;;;11.35;4.18;;;;;;;;;;4897030;29;20045;-64
2022/10/23 01:36:56;;;;;;;10.32;4.32;;;;;;;;;;4897583;29;20654;-64
2022/10/23 01:39:26;;;;;;;7.15;3.33;;;;;;;;;;4898838;29;20041;-64
2022/10/23 01:41:58;;;;;;;9.98;4.00;;;;;;;;;;4897599;29;20143;-64
2022/10/23 01:44:41;;;;;;;8.70;3.80;;;;;;;;;;4898876;29;20092;-65
2022/10/23 01:47:09;;;;;;;7.95;3.70;;;;;;;;;;4897525;29;20052;-64
2022/10/23 01:49:50;;;;;;;8.48;4.20;;;;;;;;;;4913283;29;20072;-64
2022/10/23 01:52:17;;;;;;;7.65;4.38;;;;;;;;;;4898004;29;20048;-63
2022/10/23 01:54:47;;;;;;;10.45;4.07;;;;;;;;;;4897273;29;20336;-64
2022/10/23 01:57:15;;;;;;;7.95;4.38;;;;;;;;;;4898449;29;20092;-64
2022/10/23 01:59:44;;;;;;;8.65;4.25;;;;;;;;;;4897016;29;20405;-63
2022/10/23 02:02:11;;;;;;;7.97;3.50;;;;;;;;;;4896467;29;20055;-64
2022/10/23 02:04:52;;;;;;;12.75;4.18;;;;;;;;;;4896973;29;20418;-64
2022/10/23 02:07:18;;;;;;;8.73;3.95;;;;;;;;;;4897183;29;20418;-63
2022/10/23 02:09:45;;;;;;;10.45;3.80;;;;;;;;;;4896961;29;20056;-63
2022/10/23 02:12:15;;;;;;;9.63;4.03;;;;;;;;;;4896318;29;20056;-64
2022/10/23 02:15:02;;;;;;;4.55;3.20;;;;;;;;;;4896643;29;20462;-64
2022/10/23 02:17:35;;;;;;;9.60;3.45;;;;;;;;;;4897153;29;20054;-64
2022/10/23 02:20:02;;;;;;;;;;;;;;;;;;4881789;29;20099;-63
2022/10/23 02:22:34;;;;;;;12.82;3.63;;;;;;;;;;4897455;29;20388;-64
2022/10/23 02:25:03;;;;;;;;;;;;;;;;;;4898324;29;20055;-64
2022/10/23 02:27:33;;;;;;;8.90;3.10;;;;;;;;;;4881511;29;19963;-64
2022/10/23 02:30:10;;;;;;;6.53;2.92;;;;;;;;;;4897798;29;20088;-64
2022/10/23 02:32:38;;;;;;;7.72;3.40;;;;;;;;;;4895602;29;20060;-64
2022/10/23 02:35:06;;;;;;;6.55;2.97;;;;;;;;;;4897811;29;20387;-64
2022/10/23 02:37:33;;;;;;;12.43;3.60;;;;;;;;;;4896597;29;20053;-64
2022/10/23 02:40:02;;;;;;;5.95;2.97;;;;;;;;;;4896605;29;20104;-63
2022/10/23 02:43:06;;;;;;;7.10;3.05;;;;;;;;;;4911784;29;20104;-64
2022/10/23 02:45:39;;;;;;;7.30;2.80;;;;;;;;;;4894121;29;20056;-64
2022/10/23 02:48:26;;;;;;;8.43;3.03;;;;;;;;;;4897207;29;20048;-64
2022/10/23 02:51:13;;;;;;;6.20;2.67;;;;;;;;;;4897043;29;20454;-64
2022/10/23 02:53:49;;;;;;;8.90;2.97;;;;;;;;;;4896261;29;20055;-65
2022/10/23 02:56:27;;;;;;;7.70;2.90;;;;;;;;;;4897694;29;20115;-64
2022/10/23 02:59:13;;;;;;;10.88;3.38;;;;;;;;;;4897583;29;20048;-64
2022/10/23 03:01:51;;;;;;;11.68;3.80;;;;;;;;;;4912763;29;20056;-64
2022/10/23 03:04:23;;;;;;;6.85;3.08;;;;;;;;;;4896026;29;20090;-64
2022/10/23 03:06:50;;;;;;;11.70;3.42;;;;;;;;;;4896575;29;20056;-64
2022/10/23 03:09:17;;;;;;;6.35;3.08;;;;;;;;;;4912386;29;20055;-64
2022/10/23 03:11:43;;;;;;;8.68;2.85;;;;;;;;;;4897195;29;20048;-64
2022/10/23 03:14:12;;;;;;;8.63;2.80;;;;;;;;;;4895276;29;20426;-64
2022/10/23 03:16:38;;;;;;;11.80;2.63;;;;;;;;;;4897370;29;20045;-64
2022/10/23 03:19:04;;;;;;;5.25;2.45;;;;;;;;;;4896249;29;20100;-64
2022/10/23 03:21:31;;;;;;;13.20;3.10;;;;;;;;;;4896017;29;20044;-64
2022/10/23 03:23:57;;;;;;;6.93;2.65;;;;;;;;;;4895115;29;20053;-64
2022/10/23 03:26:33;;;;;;;7.25;3.10;;;;;;;;;;4896326;29;20529;-63
2022/10/23 03:28:59;;;;;;;6.00;2.78;;;;;;;;;;4895651;29;20048;-64
2022/10/23 03:31:26;;;;;;;14.43;3.80;;;;;;;;;;4896108;29;20136;-64
2022/10/23 03:33:56;;;;;;;7.00;3.15;;;;;;;;;;4894929;29;20055;-64
2022/10/23 03:36:22;;;;;;;11.35;3.08;;;;;;;;;;4895834;29;20144;-65
2022/10/23 03:38:49;;;;;;;9.48;2.50;;;;;;;;;;4895688;29;20128;-63
2022/10/23 03:41:16;;;;;;;5.95;2.67;;;;;;;;;;4896934;29;20390;-63
2022/10/23 03:43:42;;;;;;;5.53;2.53;;;;;;;;;;4898526;29;20049;-63
2022/10/23 03:46:11;;;;;;;11.27;2.72;;;;;;;;;;4900718;29;20052;-63
2022/10/23 03:48:38;;;;;;;8.55;3.38;;;;;;;;;;4900690;29;20119;-63
2022/10/23 03:51:05;;;;;;;10.20;3.33;;;;;;;;;;4899381;29;20079;-63
2022/10/23 03:53:31;;;;;;;5.75;2.67;;;;;;;;;;4898559;29;20056;-63
2022/10/23 03:56:00;;;;;;;6.88;2.83;;;;;;;;;;4899949;29;20077;-63
2022/10/23 03:58:27;;;;;;;9.38;3.95;;;;;;;;;;4899764;29;20510;-64
2022/10/23 04:03:36;;;;;;;8.52;3.03;;;;;;;;;;4896646;29;20059;-63
2022/10/23 04:06:03;;;;;;;4.03;2.63;;;;;;;;;;4899051;29;20509;-63
2022/10/23 04:08:30;;;;;;;7.07;3.08;;;;;;;;;;4915182;29;20075;-63
2022/10/23 04:10:56;;;;;;;8.13;3.20;;;;;;;;;;4898994;29;20045;-63
2022/10/23 04:13:32;;;;;;;8.43;2.70;;;;;;;;;;4898167;29;20076;-62
2022/10/23 04:15:59;;;;;;;10.50;3.97;;;;;;;;;;4883314;29;20045;-63
2022/10/23 04:18:26;;;;;;;6.32;2.83;;;;;;;;;;4883560;29;20102;-63
2022/10/23 04:20:53;;;;;;;9.00;2.97;;;;;;;;;;4898981;29;20394;-63
2022/10/23 04:23:20;;;;;;;8.25;2.40;;;;;;;;;;4898457;29;20040;-63
2022/10/23 04:25:46;;;;;;;6.40;2.80;;;;;;;;;;4899051;29;20051;-63
2022/10/23 04:28:13;;;;;;;7.90;2.75;;;;;;;;;;4883312;29;20043;-64
2022/10/23 04:30:40;;;;;;;8.77;2.53;;;;;;;;;;4883365;29;20089;-63
2022/10/23 04:33:09;;;;;;;7.57;3.13;;;;;;;;;;4898412;29;20037;-62
2022/10/23 04:35:35;;;;;;;9.45;2.42;;;;;;;;;;4898581;29;20045;-63
2022/10/23 04:38:02;;;;;;;7.82;2.40;;;;;;;;;;4883104;29;20076;-63
2022/10/23 04:40:28;;;;;;;7.30;2.72;;;;;;;;;;4898608;29;20092;-64
2022/10/23 04:42:55;;;;;;;7.55;2.97;;;;;;;;;;4882312;29;20118;-62
2022/10/23 04:45:21;;;;;;;6.78;2.58;;;;;;;;;;4883084;29;20085;-63
2022/10/23 04:47:48;;;;;;;4.32;2.65;;;;;;;;;;4898572;29;20048;-63
2022/10/23 04:50:15;;;;;;;9.10;2.88;;;;;;;;;;4883049;29;20152;-63
2022/10/23 04:53:00;;;;;;;6.93;2.95;;;;;;;;;;4899201;29;20059;-63
2022/10/23 04:55:44;;;;;;;;;;;;;;;;;;4899182;29;20092;-63
2022/10/23 04:58:15;;;;;;;6.97;2.90;;;;;;;;;;4898576;29;20010;-63
2022/10/23 05:00:42;;;;;;;3.78;2.85;;;;;;;;;;4883075;29;20044;-63
2022/10/23 05:03:12;;;;;;;8.57;3.13;;;;;;;;;;4882270;29;20057;-63
2022/10/23 05:05:40;;;;;;;7.00;2.78;;;;;;;;;;4898439;29;20452;-63
2022/10/23 05:08:26;;;;;;;8.65;3.03;;;;;;;;;;4898279;29;20071;-63
2022/10/23 05:11:19;;;;;;;8.95;2.97;;;;;;;;;;4885853;29;20063;-64
2022/10/23 05:13:48;;;;;;;4.90;2.60;;;;;;;;;;4897256;29;20048;-63
2022/10/23 05:16:38;;;;;;;3.00;2.33;;;;;;;;;;4897833;29;20055;-63
2022/10/23 05:19:06;;;;;;;4.45;2.50;;;;;;;;;;4879632;29;20063;-64
2022/10/23 05:21:34;;;;;;;6.50;2.55;;;;;;;;;;4898930;29;20093;-63
2022/10/23 05:24:04;;;;;;;11.80;2.38;;;;;;;;;;4897104;29;20139;-64
2022/10/23 05:26:30;;;;;;;9.35;2.38;;;;;;;;;;4898824;29;20040;-63
2022/10/23 05:29:02;;;;;;;9.70;2.80;;;;;;;;;;4897570;29;20059;-64
2022/10/23 05:31:29;;;;;;;8.43;2.90;;;;;;;;;;4882161;29;20071;-64
2022/10/23 05:34:02;;;;;;;8.18;2.40;;;;;;;;;;4896991;29;20446;-63
2022/10/23 05:36:29;;;;;;;4.72;2.08;;;;;;;;;;4897507;29;20145;-63
2022/10/23 05:38:56;;;;;;;7.93;2.50;;;;;;;;;;4882034;29;20044;-64
2022/10/23 05:41:22;;;;;;;8.50;2.95;;;;;;;;;;4898531;29;20047;-63
2022/10/23 05:43:49;;;;;;;7.95;3.15;;;;;;;;;;4898279;29;20375;-63
2022/10/23 05:46:41;;;;;;;5.40;2.50;;;;;;;;;;4898527;29;20048;-64
2022/10/23 05:49:17;;;;;;;10.23;3.00;;;;;;;;;;4897311;29;20052;-64
2022/10/23 05:52:11;;;;;;;7.28;2.58;;;;;;;;;;4884173;29;20100;-64
2022/10/23 05:54:46;;;;;;;7.75;2.72;;;;;;;;;;4897094;29;20074;-64
2022/10/23 05:57:19;;;;;;;7.40;2.95;;;;;;;;;;4897150;29;20045;-64
2022/10/23 05:59:48;;;;;;;7.05;2.75;;;;;;;;;;4896910;29;20072;-64
2022/10/23 06:02:18;;;;;;;6.47;2.70;;;;;;;;;;4896363;29;20097;-65
2022/10/23 06:04:51;;;;;;;8.60;3.30;;;;;;;;;;4882146;29;20052;-64
2022/10/23 06:07:36;;;;;;;7.07;2.50;;;;;;;;;;4898176;29;20100;-64
2022/10/23 06:10:05;;;;;;;8.10;2.95;;;;;;;;;;4896773;29;20461;-64
2022/10/23 06:12:34;;;;;;;6.80;2.42;;;;;;;;;;4881101;29;20060;-63
2022/10/23 06:15:01;;;;;;;6.40;2.50;;;;;;;;;;4881240;29;20214;-63
2022/10/23 06:17:48;;;;;;;9.88;2.80;;;;;;;;;;4897899;29;20047;-63
2022/10/23 06:20:14;;;;;;;8.80;2.58;;;;;;;;;;4897867;29;20048;-63
2022/10/23 06:22:42;;;;;;;4.53;2.53;;;;;;;;;;4895898;29;20052;-63
2022/10/23 06:25:32;;;;;;;8.50;2.85;;;;;;;;;;4896625;29;20049;-63
2022/10/23 06:28:03;;;;;;;4.43;2.97;;;;;;;;;;4896855;29;20387;-64
2022/10/23 06:30:30;;;;;;;11.10;2.90;;;;;;;;;;4896460;29;20461;-63
2022/10/23 06:32:57;;;;;;;3.35;2.90;;;;;;;;;;4893548;29;20053;-63
2022/10/23 06:35:29;;;;;;;10.27;3.55;;;;;;;;;;4882157;29;20047;-61
2022/10/23 06:37:56;;;;;;;6.22;2.70;;;;;;;;;;4896330;29;20049;-62
2022/10/23 06:40:34;;;;;;;9.50;2.97;;;;;;;;;;4896558;29;20402;-62
2022/10/23 06:43:04;;;;;;;13.73;3.08;;;;;;;;;;4895706;29;20045;-62
2022/10/23 06:45:49;;;;;;;7.07;2.67;;;;;;;;;;4897905;29;20063;-62
2022/10/23 06:48:16;;;;;;;8.02;3.03;;;;;;;;;;4897671;29;20450;-61
2022/10/23 06:53:44;;;;;;;9.05;3.60;;;;;;;;;;4948750;23;20052;-63
2022/10/23 06:56:31;;;;;;;8.30;3.38;;;;;;;;;;4877369;29;20064;-62
2022/10/23 06:58:59;;;;;;;5.40;3.22;;;;;;;;;;4879006;29;20049;-62
2022/10/23 07:01:25;;;;;;;6.05;3.20;;;;;;;;;;4879093;29;20482;-62
2022/10/23 07:03:54;;;;;;;8.60;3.75;;;;;;;;;;4877184;29;20053;-62
2022/10/23 07:06:24;;;;;;;6.22;3.60;;;;;;;;;;4877746;29;20490;-63
2022/10/23 07:08:51;;;;;;;14.50;6.25;;;;;;;;;;4862516;29;20108;-63
2022/10/23 07:11:38;;;;;;;8.30;4.93;;;;;;;;;;4867653;29;20060;-63
2022/10/23 07:14:05;;;;;;;10.15;6.03;;;;;;;;;;4877313;29;20055;-63
2022/10/23 07:16:32;;;;;;;14.23;5.10;;;;;;;;;;4877461;29;20049;-62
2022/10/23 07:19:00;;;;;;;8.27;4.93;;;;;;;;;;4877666;29;20076;-62
2022/10/23 07:21:27;;;;;;;9.40;4.63;;;;;;;;;;4878720;29;20045;-62
2022/10/23 07:24:02;;;;;;;11.88;6.35;;;;;;;;;;4876930;29;20041;-63
2022/10/23 07:26:31;;;;;;;14.07;6.07;;;;;;;;;;4877410;29;20049;-62
2022/10/23 07:28:58;;;;;;;10.15;4.70;;;;;;;;;;4877732;29;20064;-63
2022/10/23 07:31:26;;;;;;;11.13;3.80;;;;;;;;;;4877665;29;20068;-63
2022/10/23 07:34:32;;;;;;;20.75;10.48;;;;;;;;;;4868616;29;20414;-63
2022/10/23 07:37:23;;;;;;;17.65;9.05;;;;;;;;;;4877178;29;20601;-63
2022/10/23 07:39:49;;;;;;;10.32;5.70;;;;;;;;;;4861767;29;20041;-63
2022/10/23 07:42:16;;;;;;;9.13;3.80;;;;;;;;;;4876979;29;20048;-64
2022/10/23 07:44:42;;;;;;;8.60;3.75;;;;;;;;;;4861756;29;20056;-64
2022/10/23 07:47:09;;;;;;;10.10;3.35;;;;;;;;;;4878227;29;20048;-64
2022/10/23 07:49:38;;;;;;;8.07;3.70;;;;;;;;;;4861919;29;20078;-64
2022/10/23 07:52:05;;;;;;;10.75;3.75;;;;;;;;;;4876148;29;20049;-64
2022/10/23 07:54:52;;;;;;;8.13;3.50;;;;;;;;;;4878028;29;20049;-63
2022/10/23 07:57:19;;;;;;;4.80;3.25;;;;;;;;;;4876938;29;20502;-63
2022/10/23 07:59:56;;;;;;;9.63;4.20;;;;;;;;;;4877143;29;20124;-63
2022/10/23 08:02:23;;;;;;;8.70;3.50;;;;;;;;;;4876467;29;20084;-64
2022/10/23 08:04:51;;;;;;;7.82;3.50;;;;;;;;;;4862029;29;20104;-63
2022/10/23 08:07:39;;;;;;;5.07;3.78;;;;;;;;;;4876814;29;20068;-65
2022/10/23 08:10:06;;;;;;;6.22;3.75;;;;;;;;;;4877413;29;20055;-63
2022/10/23 08:12:36;;;;;;;6.72;3.30;;;;;;;;;;4876452;29;20064;-65
2022/10/23 08:15:03;;;;;;;6.68;3.72;;;;;;;;;;4878212;29;20045;-63
2022/10/23 08:17:38;;;;;;;8.68;4.00;;;;;;;;;;4877025;29;20127;-63
2022/10/23 08:20:14;;;;;;;8.43;3.35;;;;;;;;;;4862700;29;20056;-62
2022/10/23 08:22:43;;;;;;;5.55;3.50;;;;;;;;;;4876116;29;20059;-62
2022/10/23 08:25:11;;;;;;;7.43;3.72;;;;;;;;;;4861670;29;20056;-63
2022/10/23 08:27:38;;;;;;;9.98;3.63;;;;;;;;;;4876865;29;20057;-63
2022/10/23 08:30:05;;;;;;;6.88;3.97;;;;;;;;;;4879065;29;20041;-63
2022/10/23 08:32:31;;;;;;;6.28;4.25;;;;;;;;;;4879396;29;20135;-63
2022/10/23 08:35:00;;;;;;;9.75;4.07;;;;;;;;;;4881142;29;20044;-63
2022/10/23 08:37:29;;;;;;;6.93;3.47;;;;;;;;;;4879939;29;20108;-63
2022/10/23 08:39:56;;;;;;;10.73;3.38;;;;;;;;;;4879952;29;20064;-63
2022/10/23 08:42:50;;;;;;;13.27;3.53;;;;;;;;;;4870933;29;20132;-64
2022/10/23 08:45:29;;;;;;;5.47;3.70;;;;;;;;;;4880273;29;20057;-63
2022/10/23 08:48:12;;;;;;;6.95;3.33;;;;;;;;;;4880112;29;20045;-63
2022/10/23 08:51:15;;;;;;;4.22;3.35;;;;;;;;;;4881464;29;20100;-63
2022/10/23 08:53:53;;;;;;;4.05;3.15;;;;;;;;;;4880292;29;20049;-64
2022/10/23 08:56:25;;;;;;;9.25;3.75;;;;;;;;;;4880851;29;20109;-63
2022/10/23 08:58:54;;;;;;;8.60;4.28;;;;;;;;;;4881013;29;20083;-63
2022/10/23 09:01:34;;;;;;;8.10;3.65;;;;;;;;;;4880991;29;20430;-63
2022/10/23 09:04:01;;;;;;;8.65;3.38;;;;;;;;;;4881317;29;20054;-64
2022/10/23 09:06:28;;;;;;;7.00;3.90;;;;;;;;;;4881227;29;20498;-65
2022/10/23 09:09:09;;;;;;;4.93;4.13;;;;;;;;;;4881205;29;20135;-64
2022/10/23 09:11:54;;;;;;;5.25;3.75;;;;;;;;;;4879544;29;20052;-65
2022/10/23 09:14:26;;;;;;;9.57;4.38;;;;;;;;;;4880998;29;20514;-64
2022/10/23 09:16:55;;;;;;;8.75;4.35;;;;;;;;;;4880808;29;20052;-64
2022/10/23 09:19:26;;;;;;;10.60;5.20;;;;;;;;;;4880847;29;20053;-64
2022/10/23 09:21:54;;;;;;;9.77;4.85;;;;;;;;;;4880689;29;20053;-64
2022/10/23 09:24:22;;;;;;;6.43;3.83;;;;;;;;;;4880599;29;20128;-64
2022/10/23 09:26:49;;;;;;;7.07;3.53;;;;;;;;;;4879217;29;20419;-64
2022/10/23 09:29:26;;;;;;;5.95;3.40;;;;;;;;;;4880351;29;20510;-64
2022/10/23 09:31:59;;;;;;;6.22;3.65;;;;;;;;;;4879674;29;20672;-64
2022/10/23 09:34:27;;;;;;;5.40;3.00;;;;;;;;;;4878822;29;20048;-65
2022/10/23 09:36:55;;;;;;;6.65;4.13;;;;;;;;;;4880038;29;20312;-64
2022/10/23 09:39:23;;;;;;;7.65;4.90;;;;;;;;;;4880276;29;20057;-64
2022/10/23 09:41:49;;;;;;;10.32;3.88;;;;;;;;;;4879420;29;20052;-65
2022/10/23 09:44:26;;;;;;;5.78;3.78;;;;;;;;;;4879021;29;20085;-65
2022/10/23 09:46:57;;;;;;;12.93;6.85;;;;;;;;;;4878899;29;20045;-66
2022/10/23 09:49:23;;;;;;;6.10;3.80;;;;;;;;;;4880092;29;20077;-66
2022/10/23 09:52:01;;;;;;;8.02;3.25;;;;;;;;;;4878037;29;20156;-66
2022/10/23 09:54:38;;;;;;;9.32;3.85;;;;;;;;;;4879755;29;20139;-66
2022/10/23 09:57:14;;;;;;;5.45;3.38;;;;;;;;;;4863782;29;20060;-65
2022/10/23 09:59:41;;;;;;;8.38;3.30;;;;;;;;;;4879130;29;20418;-66
2022/10/23 10:02:26;;;;;;;9.50;3.78;;;;;;;;;;4863081;29;20073;-66
2022/10/23 10:05:20;;;;;;;9.40;3.92;;;;;;;;;;4879269;29;20088;-66
2022/10/23 10:07:54;;;;;;;9.38;3.53;;;;;;;;;;4879887;29;20078;-65
2022/10/23 10:10:20;;;;;;;7.05;4.15;;;;;;;;;;4880259;29;20077;-65
2022/10/23 10:12:55;;;;;;;10.35;3.80;;;;;;;;;;4862960;29;20109;-66
2022/10/23 10:15:33;;;;;;;9.02;3.80;;;;;;;;;;4878756;29;20096;-66
2022/10/23 10:18:25;;;;;;;7.55;4.47;;;;;;;;;;4878616;29;20075;-65
2022/10/23 10:21:07;;;;;;;6.30;4.43;;;;;;;;;;4894654;29;20088;-65
2022/10/23 10:23:41;;;;;;;8.95;4.10;;;;;;;;;;4879388;29;20053;-65
2022/10/23 10:26:27;;;;;;;6.65;3.97;;;;;;;;;;4879170;29;20052;-65
2022/10/23 10:28:57;;;;;;;7.43;3.70;;;;;;;;;;4879888;29;20041;-65
2022/10/23 10:31:45;;;;;;;5.47;4.05;;;;;;;;;;4878730;29;20045;-65
2022/10/23 10:34:18;;;;;;;9.55;4.72;;;;;;;;;;4894617;29;20525;-65
2022/10/23 10:36:44;;;;;;;9.02;4.38;;;;;;;;;;4880007;29;20077;-65
2022/10/23 10:39:20;;;;;;;8.25;4.15;;;;;;;;;;4879820;29;20132;-66
2022/10/23 10:42:05;;;;;;;7.03;4.60;;;;;;;;;;4879230;29;20190;-67
2022/10/23 10:44:47;;;;;;;8.02;4.10;;;;;;;;;;4878742;29;20502;-65
2022/10/23 10:47:13;;;;;;;9.63;4.07;;;;;;;;;;4862981;29;20045;-65
2022/10/23 10:49:54;;;;;;;6.78;4.05;;;;;;;;;;4878303;29;20109;-65
2022/10/23 10:52:32;;;;;;;6.35;3.33;;;;;;;;;;4892214;29;20048;-65
2022/10/23 10:54:58;;;;;;;7.53;2.83;;;;;;;;;;4877738;29;20037;-66
2022/10/23 10:57:37;;;;;;;4.30;2.65;;;;;;;;;;4878850;29;20105;-65
2022/10/23 11:00:05;;;;;;;5.88;2.15;;;;;;;;;;4878841;29;20073;-65
2022/10/23 11:02:40;;;;;;;3.15;2.10;;;;;;;;;;4892385;29;20521;-63
2022/10/23 11:05:12;;;;;;;2.63;1.90;;;;;;;;;;4878665;29;20081;-64
2022/10/23 11:07:50;;;;;;;5.47;2.30;;;;;;;;;;4879157;29;20052;-65
2022/10/23 11:10:18;;;;;;;3.40;2.00;;;;;;;;;;4877752;29;20105;-68
2022/10/23 11:12:45;;;;;;;2.30;1.58;;;;;;;;;;4892485;29;20096;-66
2022/10/23 11:15:16;;;;;;;2.75;1.50;;;;;;;;;;4877398;29;20069;-64
2022/10/23 11:18:03;;;;;;;3.00;1.40;;;;;;;;;;4878819;29;20558;-65
2022/10/23 11:20:38;;;;;;;1.92;1.15;;;;;;;;;;4877285;29;20133;-66
2022/10/23 11:23:25;;;;;;;3.72;1.05;;;;;;;;;;4892191;29;20053;-66
2022/10/23 11:26:09;;;;;;;3.75;1.35;;;;;;;;;;4878440;29;20078;-66
2022/10/23 11:28:47;;;;;;;3.92;1.48;;;;;;;;;;4877843;29;20105;-65
2022/10/23 11:31:20;;;;;;;2.30;0.93;;;;;;;;;;4877960;29;20060;-67
2022/10/23 11:33:56;;;;;;;1.65;1.02;;;;;;;;;;4892374;29;20112;-66
2022/10/23 11:36:41;;;;;;;2.42;1.30;;;;;;;;;;4878308;29;20069;-63
2022/10/23 11:39:16;;;;;;;2.70;1.40;;;;;;;;;;4877449;29;20140;-66
2022/10/23 11:41:53;;;;;;;3.17;1.60;;;;;;;;;;4877768;29;20076;-66
2022/10/23 11:44:26;;;;;;;2.20;1.00;;;;;;;;;;4877272;29;20158;-64
2022/10/23 11:46:59;;;;;;;2.38;0.90;;;;;;;;;;4877020;29;20057;-66
2022/10/23 11:49:26;;;;;;;3.75;1.58;;;;;;;;;;4878190;29;20087;-66
2022/10/23 11:51:59;;;;;;;3.45;1.02;;;;;;;;;;4876403;29;20053;-66
2022/10/23 11:54:26;;;;;;;2.95;1.77;;;;;;;;;;4876886;29;20053;-65
2022/10/23 11:57:02;;;;;;;5.97;1.30;;;;;;;;;;4877126;29;20057;-65
2022/10/23 11:59:44;;;;;;;4.03;2.28;;;;;;;;;;4878458;29;20083;-65
2022/10/23 12:02:30;;;;;;;5.38;1.13;;;;;;;;;;4877923;29;20045;-65
2022/10/23 12:05:00;;;;;;;4.22;1.30;;;;;;;;;;4895032;29;20049;-64
2022/10/23 12:07:28;;;;;;;4.47;1.85;;;;;;;;;;4882090;29;20394;-64
2022/10/23 12:09:59;;;;;;;1.15;0.98;;;;;;;;;;4882145;29;20068;-64
2022/10/23 12:12:40;;;;;;;3.03;1.38;;;;;;;;;;4880425;29;20097;-65
2022/10/23 12:15:10;;;;;;;3.97;2.63;;;;;;;;;;4880943;29;20143;-66
2022/10/23 12:17:40;;;;;;;3.45;1.70;;;;;;;;;;4881803;29;20078;-67
2022/10/23 12:20:07;;;;;;;3.25;1.15;;;;;;;;;;4882025;29;20613;-66
2022/10/23 12:22:52;;;;;;;4.65;1.17;;;;;;;;;;4880045;29;20049;-66
2022/10/23 12:25:24;;;;;;;4.22;1.58;;;;;;;;;;4882505;29;20140;-66
2022/10/23 12:28:09;;;;;;;2.90;1.35;;;;;;;;;;4883060;29;20045;-66
2022/10/23 12:30:39;;;;;;;4.53;1.42;;;;;;;;;;4881899;29;20043;-66
2022/10/23 12:33:17;;;;;;;4.47;1.88;;;;;;;;;;4879632;29;20041;-66
2022/10/23 12:36:01;;;;;;;4.80;1.60;;;;;;;;;;4880324;29;20065;-66
2022/10/23 12:38:28;;;;;;;6.18;3.70;;;;;;;;;;4881306;29;20045;-66
2022/10/23 12:41:08;;;;;;;3.40;2.25;;;;;;;;;;4880059;29;20421;-66
2022/10/23 12:43:34;;;;;;;;;;;;;;;;;;4881052;29;20485;-67
2022/10/23 12:46:16;;;;;;;8.27;2.00;;;;;;;;;;4881114;29;20374;-67
2022/10/23 12:48:48;;;;;;;5.13;1.70;;;;;;;;;;4879746;29;20055;-67
2022/10/23 12:51:22;;;;;;;3.78;2.17;;;;;;;;;;4879799;29;20101;-66
2022/10/23 12:53:49;;;;;;;6.25;2.00;;;;;;;;;;4880746;29;20413;-65
2022/10/23 12:56:16;;;;;;;6.63;2.17;;;;;;;;;;4880755;29;20101;-66
2022/10/23 12:58:50;;;;;;;4.28;1.95;;;;;;;;;;4880986;29;20128;-66
2022/10/23 13:01:26;;;;;;;7.00;2.50;;;;;;;;;;4879824;29;20049;-66
2022/10/23 13:03:58;;;;;;;6.57;1.85;;;;;;;;;;4880493;29;20149;-66
2022/10/23 13:06:25;;;;;;;5.90;1.58;;;;;;;;;;4895203;29;20049;-66
2022/10/23 13:08:51;;;;;;;4.78;2.17;;;;;;;;;;4880746;29;20060;-66
2022/10/23 13:11:41;;;;;;;7.65;2.30;;;;;;;;;;4880306;29;20090;-65
2022/10/23 13:14:12;;;;;;;6.97;2.05;;;;;;;;;;4879166;29;20108;-65
2022/10/23 13:16:38;;;;;;;9.07;2.80;;;;;;;;;;4880505;29;20047;-65
2022/10/23 13:19:05;;;;;;;6.72;2.75;;;;;;;;;;4879338;29;20076;-64
2022/10/23 13:21:31;;;;;;;4.85;2.05;;;;;;;;;;4880490;29;20052;-65
2022/10/23 13:23:58;;;;;;;6.65;2.22;;;;;;;;;;4879109;29;20048;-65
2022/10/23 13:26:29;;;;;;;4.72;2.08;;;;;;;;;;4880384;29;20524;-65
2022/10/23 13:28:56;;;;;;;4.43;2.22;;;;;;;;;;4880370;29;20078;-64
2022/10/23 13:31:24;;;;;;;5.60;2.40;;;;;;;;;;4879038;29;20473;-65
2022/10/23 13:34:03;;;;;;;7.28;1.77;;;;;;;;;;4894142;29;20059;-65
2022/10/23 13:36:30;;;;;;;9.68;1.95;;;;;;;;;;4880288;29;20041;-66
2022/10/23 13:39:07;;;;;;;5.88;1.70;;;;;;;;;;4880380;29;20037;-67
2022/10/23 13:41:35;;;;;;;6.72;1.88;;;;;;;;;;4878846;29;20080;-67
2022/10/23 13:44:02;;;;;;;7.50;2.53;;;;;;;;;;4880152;29;20056;-66
2022/10/23 13:46:29;;;;;;;13.15;3.13;;;;;;;;;;4880235;29;20399;-66
2022/10/23 13:48:55;;;;;;;7.22;2.08;;;;;;;;;;4880100;29;20041;-65
2022/10/23 13:51:23;;;;;;;5.50;1.80;;;;;;;;;;4880031;29;20132;-66
2022/10/23 13:53:50;;;;;;;9.93;3.92;;;;;;;;;;4894059;29;20105;-66
2022/10/23 13:56:18;;;;;;;5.03;2.08;;;;;;;;;;4879799;29;20490;-66
2022/10/23 13:58:45;;;;;;;6.35;2.00;;;;;;;;;;4880174;29;20390;-67
2022/10/23 14:01:18;;;;;;;9.27;2.00;;;;;;;;;;4878498;29;20117;-67
2022/10/23 14:03:45;;;;;;;3.17;1.80;;;;;;;;;;4878254;29;20067;-67
2022/10/23 14:06:12;;;;;;;4.10;1.90;;;;;;;;;;4878410;29;20467;-65
2022/10/23 14:08:38;;;;;;;6.07;1.98;;;;;;;;;;4878423;29;20101;-66
2022/10/23 14:11:05;;;;;;;5.63;2.08;;;;;;;;;;4878544;29;20049;-66
2022/10/23 14:13:31;;;;;;;6.63;1.58;;;;;;;;;;4877819;29;20037;-66
2022/10/23 14:15:58;;;;;;;8.98;1.73;;;;;;;;;;4893808;29;20409;-66
2022/10/23 14:18:24;;;;;;;5.80;1.90;;;;;;;;;;4878257;29;20053;-67
2022/10/23 14:20:51;;;;;;;4.78;2.13;;;;;;;;;;4878179;29;20049;-67
2022/10/23 14:23:17;;;;;;;6.60;2.53;;;;;;;;;;4877524;29;20049;-67
2022/10/23 14:25:43;;;;;;;5.97;1.60;;;;;;;;;;4878313;29;20045;-65
2022/10/23 14:28:10;;;;;;;8.38;2.30;;;;;;;;;;4878869;29;20093;-66
2022/10/23 14:30:36;;;;;;;7.10;1.73;;;;;;;;;;4879333;29;20041;-63
2022/10/23 14:33:03;;;;;;;7.35;2.03;;;;;;;;;;4878731;29;20069;-64
2022/10/23 14:35:29;;;;;;;4.20;2.22;;;;;;;;;;4877941;29;20062;-64
2022/10/23 14:37:57;;;;;;;7.25;5.28;;;;;;;;;;4862511;29;20049;-65
2022/10/23 14:40:24;;;;;;;7.88;4.25;;;;;;;;;;4879318;29;20045;-65
2022/10/23 14:42:50;;;;;;;7.93;2.70;;;;;;;;;;4877303;29;20056;-65
2022/10/23 14:45:17;;;;;;;6.43;2.45;;;;;;;;;;4879003;29;20081;-65
2022/10/23 14:47:43;;;;;;;5.55;2.25;;;;;;;;;;4879023;29;20110;-65
2022/10/23 14:50:10;;;;;;;10.40;3.33;;;;;;;;;;4877731;29;20049;-67
2022/10/23 14:52:37;;;;;;;7.82;2.63;;;;;;;;;;4878312;29;20053;-65
2022/10/23 14:55:03;;;;;;;9.52;2.97;;;;;;;;;;4878912;29;20056;-64
2022/10/23 14:57:30;;;;;;;11.48;2.58;;;;;;;;;;4878918;29;20101;-65
2022/10/23 14:59:56;;;;;;;7.00;2.42;;;;;;;;;;4878677;29;20078;-65
2022/10/23 15:02:22;;;;;;;7.35;3.00;;;;;;;;;;4876964;29;20060;-65
2022/10/23 15:04:49;;;;;;;8.68;2.63;;;;;;;;;;4877686;29;20116;-65
2022/10/23 15:07:15;;;;;;;10.85;1.98;;;;;;;;;;4878984;29;20059;-64
2022/10/23 15:09:42;;;;;;;7.20;3.75;;;;;;;;;;4878844;29;20045;-64
2022/10/23 15:12:08;;;;;;;9.25;2.85;;;;;;;;;;4878461;29;20104;-63
2022/10/23 15:14:34;;;;;;;6.97;2.08;;;;;;;;;;4878712;29;20052;-64